Time;durP1;ratioP1;P1;durP2;ratioP2;P2;SDS_P1;SDS_P2;PMS_P1;PMS_P2;Temp;Humidity;BMP_temperature;BMP_pressure;BME280_temperature;BME280_humidity;BME280_pressure;Samples;Min_cycle;Max_cycle;Signal;HPM_P1;HPM_P2
2022/03/03 00:02:02;;;;;;;9.35;5.97;;;;;;;;;;5074361;28;20095;-39
2022/03/03 00:04:27;;;;;;;10.52;6.15;;;;;;;;;;5074328;28;20024;-39
2022/03/03 00:06:52;;;;;;;13.20;6.55;;;;;;;;;;5074148;28;20024;-39
2022/03/03 00:09:18;;;;;;;15.68;7.30;;;;;;;;;;5074536;28;20032;-39
2022/03/03 00:11:43;;;;;;;11.05;5.63;;;;;;;;;;5074383;28;20036;-40
2022/03/03 00:14:09;;;;;;;15.98;7.65;;;;;;;;;;5074136;28;20079;-39
2022/03/03 00:16:34;;;;;;;15.18;6.55;;;;;;;;;;5074225;28;20491;-39
2022/03/03 00:19:00;;;;;;;12.20;5.70;;;;;;;;;;5073885;28;20033;-39
2022/03/03 00:21:25;;;;;;;14.05;6.38;;;;;;;;;;5074059;28;20025;-39
2022/03/03 00:23:51;;;;;;;11.00;6.22;;;;;;;;;;5073832;28;20025;-39
2022/03/03 00:26:16;;;;;;;13.35;6.60;;;;;;;;;;5074015;28;20348;-39
2022/03/03 00:28:42;;;;;;;15.35;6.60;;;;;;;;;;5074139;28;20383;-39
2022/03/03 00:31:08;;;;;;;10.13;6.82;;;;;;;;;;5073689;28;20534;-39
2022/03/03 00:33:33;;;;;;;13.57;6.75;;;;;;;;;;5073523;28;20087;-39
2022/03/03 00:35:59;;;;;;;9.77;5.75;;;;;;;;;;5073981;28;20039;-39
2022/03/03 00:38:24;;;;;;;10.32;6.05;;;;;;;;;;5073945;28;20025;-39
2022/03/03 00:40:50;;;;;;;9.50;6.43;;;;;;;;;;5073549;28;20066;-39
2022/03/03 00:43:15;;;;;;;10.52;5.72;;;;;;;;;;5073934;28;20054;-39
2022/03/03 00:45:41;;;;;;;13.90;6.40;;;;;;;;;;5073838;28;20375;-42
2022/03/03 00:48:06;;;;;;;12.23;6.10;;;;;;;;;;5073723;28;20380;-39
2022/03/03 00:50:32;;;;;;;10.73;5.97;;;;;;;;;;5073670;28;20482;-39
2022/03/03 00:52:57;;;;;;;8.98;4.82;;;;;;;;;;5073111;28;20095;-39
2022/03/03 00:55:23;;;;;;;14.85;5.60;;;;;;;;;;5073449;28;20035;-39
2022/03/03 00:57:48;;;;;;;13.38;5.60;;;;;;;;;;5073254;28;20115;-40
2022/03/03 01:00:14;;;;;;;9.57;5.68;;;;;;;;;;5073191;28;20115;-39
2022/03/03 01:02:39;;;;;;;13.13;5.97;;;;;;;;;;5073247;28;20438;-39
2022/03/03 01:05:05;;;;;;;7.38;5.47;;;;;;;;;;5073467;28;20036;-39
2022/03/03 01:07:31;;;;;;;11.40;5.88;;;;;;;;;;5073241;28;20033;-39
2022/03/03 01:09:56;;;;;;;8.73;5.45;;;;;;;;;;5072397;28;20027;-39
2022/03/03 01:12:22;;;;;;;15.75;5.97;;;;;;;;;;5073106;28;20033;-39
2022/03/03 01:14:47;;;;;;;8.95;5.82;;;;;;;;;;5073160;28;20052;-39
2022/03/03 01:17:13;;;;;;;10.88;5.28;;;;;;;;;;5073034;28;20480;-38
2022/03/03 01:19:39;;;;;;;13.38;6.22;;;;;;;;;;5072999;28;20433;-39
2022/03/03 01:22:04;;;;;;;13.40;6.03;;;;;;;;;;5072687;28;20055;-39
2022/03/03 01:24:31;;;;;;;5.78;4.35;;;;;;;;;;5072860;28;20029;-39
2022/03/03 01:26:56;;;;;;;11.65;6.20;;;;;;;;;;5072658;28;20493;-39
2022/03/03 01:29:22;;;;;;;14.57;6.38;;;;;;;;;;5072973;28;20107;-39
2022/03/03 01:31:47;;;;;;;10.40;6.47;;;;;;;;;;5072387;28;20048;-39
2022/03/03 01:34:12;;;;;;;10.45;5.85;;;;;;;;;;5072899;28;20080;-39
2022/03/03 01:36:38;;;;;;;10.57;5.55;;;;;;;;;;5072499;28;20123;-39
2022/03/03 01:39:04;;;;;;;10.73;5.60;;;;;;;;;;5072736;28;20028;-39
2022/03/03 01:41:29;;;;;;;12.93;5.95;;;;;;;;;;5072719;28;20111;-39
2022/03/03 01:43:55;;;;;;;12.57;7.43;;;;;;;;;;5072299;28;20020;-39
2022/03/03 01:46:20;;;;;;;17.70;5.50;;;;;;;;;;5072645;28;20032;-39
2022/03/03 01:48:45;;;;;;;9.90;5.78;;;;;;;;;;5072303;28;20036;-39
2022/03/03 01:51:11;;;;;;;11.85;6.05;;;;;;;;;;5072495;28;20032;-39
2022/03/03 01:53:37;;;;;;;10.32;5.20;;;;;;;;;;5070889;28;20028;-39
2022/03/03 01:56:02;;;;;;;14.43;5.60;;;;;;;;;;5071187;28;20040;-43
2022/03/03 01:58:28;;;;;;;11.13;5.85;;;;;;;;;;5054095;28;20047;-38
2022/03/03 02:00:53;;;;;;;9.13;5.20;;;;;;;;;;5072299;28;20112;-39
2022/03/03 02:03:19;;;;;;;8.73;4.88;;;;;;;;;;5072347;28;20394;-39
2022/03/03 02:05:44;;;;;;;10.25;4.80;;;;;;;;;;5072103;28;20475;-39
2022/03/03 02:08:10;;;;;;;11.98;6.72;;;;;;;;;;5071953;28;20029;-38
2022/03/03 02:10:35;;;;;;;7.80;5.22;;;;;;;;;;5072142;28;20070;-39
2022/03/03 02:13:01;;;;;;;10.43;6.35;;;;;;;;;;5070421;28;20497;-39
2022/03/03 02:15:26;;;;;;;12.00;7.10;;;;;;;;;;5070607;28;20028;-39
2022/03/03 02:17:51;;;;;;;9.35;5.50;;;;;;;;;;5071920;28;20037;-38
2022/03/03 02:20:19;;;;;;;15.32;6.47;;;;;;;;;;5071945;28;20035;-38
2022/03/03 02:22:44;;;;;;;13.30;5.82;;;;;;;;;;5070841;28;20534;-38
2022/03/03 02:25:10;;;;;;;11.88;5.75;;;;;;;;;;5071907;28;20021;-38
2022/03/03 02:27:35;;;;;;;11.60;6.20;;;;;;;;;;5071707;28;20059;-38
2022/03/03 02:30:00;;;;;;;7.97;5.35;;;;;;;;;;5071432;28;20028;-39
2022/03/03 02:32:26;;;;;;;6.35;4.47;;;;;;;;;;5071416;28;20052;-39
2022/03/03 02:34:51;;;;;;;9.93;5.60;;;;;;;;;;5071711;28;20017;-38
2022/03/03 02:37:17;;;;;;;8.80;5.30;;;;;;;;;;5071720;28;20056;-39
2022/03/03 02:39:43;;;;;;;11.20;4.72;;;;;;;;;;5071649;28;20141;-38
2022/03/03 02:42:09;;;;;;;10.68;5.88;;;;;;;;;;5071443;28;20035;-39
2022/03/03 02:44:35;;;;;;;12.05;5.55;;;;;;;;;;5071770;28;20360;-38
2022/03/03 02:47:00;;;;;;;12.68;5.15;;;;;;;;;;5071261;28;20032;-38
2022/03/03 02:49:26;;;;;;;15.32;5.57;;;;;;;;;;5071191;28;20463;-39
2022/03/03 02:51:51;;;;;;;11.73;5.57;;;;;;;;;;5071287;28;20020;-39
2022/03/03 02:54:17;;;;;;;10.73;5.95;;;;;;;;;;5071266;28;20040;-38
2022/03/03 02:59:26;;;;;;;13.73;5.68;;;;;;;;;;5071583;28;20074;-38
2022/03/03 03:01:52;;;;;;;9.60;5.25;;;;;;;;;;5070133;28;20059;-39
2022/03/03 03:04:17;;;;;;;9.23;5.53;;;;;;;;;;5071641;28;20506;-39
2022/03/03 03:06:43;;;;;;;15.18;5.68;;;;;;;;;;5070175;28;20025;-39
2022/03/03 03:09:08;;;;;;;11.13;5.20;;;;;;;;;;5071358;28;20028;-38
2022/03/03 03:11:34;;;;;;;12.43;6.07;;;;;;;;;;5071558;28;20016;-38
2022/03/03 03:13:59;;;;;;;8.05;5.20;;;;;;;;;;5071243;28;20033;-38
2022/03/03 03:16:25;;;;;;;8.25;4.28;;;;;;;;;;5071147;28;20352;-38
2022/03/03 03:18:50;;;;;;;11.25;5.95;;;;;;;;;;5071276;28;20112;-39
2022/03/03 03:21:16;;;;;;;9.02;5.10;;;;;;;;;;5071411;28;20431;-38
2022/03/03 03:23:41;;;;;;;8.35;5.82;;;;;;;;;;5071005;28;20526;-39
2022/03/03 03:26:06;;;;;;;12.30;5.10;;;;;;;;;;5070948;28;20025;-38
2022/03/03 03:28:32;;;;;;;9.27;4.70;;;;;;;;;;5071071;28;20033;-39
2022/03/03 03:30:57;;;;;;;10.05;4.95;;;;;;;;;;5070754;28;20120;-38
2022/03/03 03:33:22;;;;;;;10.43;6.07;;;;;;;;;;5071712;28;20139;-38
2022/03/03 03:35:48;;;;;;;15.05;6.13;;;;;;;;;;5074863;28;20368;-39
2022/03/03 03:38:13;;;;;;;12.75;5.20;;;;;;;;;;5075066;28;20032;-39
2022/03/03 03:40:39;;;;;;;8.23;4.78;;;;;;;;;;5075020;28;20028;-39
2022/03/03 03:43:04;;;;;;;8.52;4.97;;;;;;;;;;5074683;28;20082;-38
2022/03/03 03:45:31;;;;;;;8.65;4.43;;;;;;;;;;5074692;28;20016;-38
2022/03/03 03:47:57;;;;;;;7.80;5.22;;;;;;;;;;5074621;28;20540;-38
2022/03/03 03:50:22;;;;;;;8.45;5.00;;;;;;;;;;5074713;28;20028;-38
2022/03/03 03:52:48;;;;;;;7.63;4.78;;;;;;;;;;5074474;28;20032;-38
2022/03/03 03:55:13;;;;;;;15.20;5.05;;;;;;;;;;5074579;28;20017;-38
2022/03/03 03:57:39;;;;;;;11.07;5.07;;;;;;;;;;5074612;28;20028;-43
2022/03/03 04:00:06;;;;;;;9.48;5.90;;;;;;;;;;5074580;28;20020;-38
2022/03/03 04:02:38;;;;;;;10.13;4.75;;;;;;;;;;5074422;28;20372;-38
2022/03/03 04:05:03;;;;;;;9.93;5.05;;;;;;;;;;5074253;28;20032;-39
2022/03/03 04:07:29;;;;;;;12.00;5.75;;;;;;;;;;5074384;28;20025;-38
2022/03/03 04:09:54;;;;;;;10.13;6.10;;;;;;;;;;5074106;28;20028;-38
2022/03/03 04:12:20;;;;;;;9.45;4.72;;;;;;;;;;5074130;28;20029;-38
2022/03/03 04:14:45;;;;;;;7.85;4.63;;;;;;;;;;5074076;28;20116;-39
2022/03/03 04:17:11;;;;;;;10.55;5.05;;;;;;;;;;5074070;28;20095;-38
2022/03/03 04:19:36;;;;;;;7.97;5.03;;;;;;;;;;5074600;28;20043;-38
2022/03/03 04:22:02;;;;;;;9.30;4.18;;;;;;;;;;5074199;28;20378;-39
2022/03/03 04:24:27;;;;;;;11.35;4.20;;;;;;;;;;5074047;28;20039;-38
2022/03/03 04:26:53;;;;;;;9.45;5.55;;;;;;;;;;5073875;28;20116;-39
2022/03/03 04:29:19;;;;;;;11.77;4.70;;;;;;;;;;5073942;28;20047;-38
2022/03/03 04:31:45;;;;;;;11.30;5.20;;;;;;;;;;5073940;28;20455;-39
2022/03/03 04:34:10;;;;;;;10.70;4.82;;;;;;;;;;5073919;28;20036;-39
2022/03/03 04:36:36;;;;;;;14.52;5.22;;;;;;;;;;5072533;28;20571;-39
2022/03/03 04:39:01;;;;;;;8.93;5.70;;;;;;;;;;5073888;28;20031;-39
2022/03/03 04:41:27;;;;;;;10.35;4.97;;;;;;;;;;5073810;28;20023;-38
2022/03/03 04:43:52;;;;;;;13.85;5.18;;;;;;;;;;5073550;28;20035;-38
2022/03/03 04:46:18;;;;;;;11.25;6.63;;;;;;;;;;5072598;28;20028;-39
2022/03/03 04:48:43;;;;;;;9.88;4.78;;;;;;;;;;5073535;28;20036;-39
2022/03/03 04:51:09;;;;;;;8.27;4.95;;;;;;;;;;5073418;28;20032;-38
2022/03/03 04:53:34;;;;;;;9.43;4.45;;;;;;;;;;5073404;28;20116;-39
2022/03/03 04:56:00;;;;;;;8.93;5.53;;;;;;;;;;5073346;28;20016;-38
2022/03/03 04:58:25;;;;;;;11.68;4.95;;;;;;;;;;5073367;28;20041;-38
2022/03/03 05:00:51;;;;;;;8.45;4.60;;;;;;;;;;5073242;28;20025;-38
2022/03/03 05:03:17;;;;;;;11.05;5.35;;;;;;;;;;5073265;28;20020;-38
2022/03/03 05:05:42;;;;;;;7.80;4.97;;;;;;;;;;5073520;28;20028;-39
2022/03/03 05:08:08;;;;;;;9.60;5.47;;;;;;;;;;5073409;28;20040;-39
2022/03/03 05:10:33;;;;;;;6.32;4.30;;;;;;;;;;5073133;28;20510;-39
2022/03/03 05:13:01;;;;;;;9.43;4.97;;;;;;;;;;5072830;28;20494;-39
2022/03/03 05:15:26;;;;;;;6.13;2.90;;;;;;;;;;5073072;28;20628;-39
2022/03/03 05:17:52;;;;;;;10.43;5.03;;;;;;;;;;5073134;28;20107;-38
2022/03/03 05:20:17;;;;;;;9.40;4.38;;;;;;;;;;5073176;28;20363;-38
2022/03/03 05:22:43;;;;;;;10.77;4.50;;;;;;;;;;5072909;28;20033;-41
2022/03/03 05:25:10;;;;;;;16.95;4.50;;;;;;;;;;5072652;28;20074;-38
2022/03/03 05:27:36;;;;;;;7.20;5.18;;;;;;;;;;5073067;28;20048;-38
2022/03/03 05:30:02;;;;;;;9.55;4.82;;;;;;;;;;5072822;28;20012;-38
2022/03/03 05:32:27;;;;;;;10.95;4.65;;;;;;;;;;5072455;28;20135;-39
2022/03/03 05:34:53;;;;;;;7.03;3.95;;;;;;;;;;5072590;28;20086;-39
2022/03/03 05:37:24;;;;;;;10.10;4.47;;;;;;;;;;5072502;28;20090;-39
2022/03/03 05:39:50;;;;;;;8.32;4.55;;;;;;;;;;5072459;28;20120;-39
2022/03/03 05:42:18;;;;;;;11.30;4.70;;;;;;;;;;5072446;28;20469;-39
2022/03/03 05:44:44;;;;;;;6.72;3.92;;;;;;;;;;5072307;28;20037;-39
2022/03/03 05:47:12;;;;;;;8.70;4.72;;;;;;;;;;5072158;28;20020;-38
2022/03/03 05:49:38;;;;;;;10.93;4.45;;;;;;;;;;5072567;28;20028;-38
2022/03/03 05:52:04;;;;;;;14.52;5.18;;;;;;;;;;5072064;28;20020;-39
2022/03/03 05:54:29;;;;;;;11.50;4.53;;;;;;;;;;5072451;28;20043;-39
2022/03/03 05:56:55;;;;;;;6.80;4.22;;;;;;;;;;5072263;28;20032;-39
2022/03/03 05:59:22;;;;;;;8.07;4.30;;;;;;;;;;5072160;28;20086;-39
2022/03/03 06:01:47;;;;;;;10.32;4.78;;;;;;;;;;5071876;28;20017;-39
2022/03/03 06:04:13;;;;;;;4.18;3.58;;;;;;;;;;5072319;28;20098;-38
2022/03/03 06:06:42;;;;;;;11.25;4.13;;;;;;;;;;5071986;28;20012;-39
2022/03/03 06:09:14;;;;;;;8.60;4.68;;;;;;;;;;5071928;28;20488;-39
2022/03/03 06:11:47;;;;;;;7.68;4.38;;;;;;;;;;5071901;28;20024;-39
2022/03/03 06:14:15;;;;;;;7.00;3.85;;;;;;;;;;5071770;28;20040;-39
2022/03/03 06:16:42;;;;;;;9.65;5.80;;;;;;;;;;5070726;28;20073;-39
2022/03/03 06:19:08;;;;;;;12.20;4.70;;;;;;;;;;5071967;28;20036;-39
2022/03/03 06:21:33;;;;;;;6.63;4.50;;;;;;;;;;5071731;28;20021;-39
2022/03/03 06:23:59;;;;;;;14.50;4.00;;;;;;;;;;5071574;28;20039;-39
2022/03/03 06:26:25;;;;;;;10.77;4.18;;;;;;;;;;5071774;28;20020;-39
2022/03/03 06:28:51;;;;;;;6.65;4.72;;;;;;;;;;5071537;28;20028;-39
2022/03/03 06:31:16;;;;;;;6.97;3.88;;;;;;;;;;5071670;28;20478;-39
2022/03/03 06:33:43;;;;;;;7.72;4.40;;;;;;;;;;5071424;28;20044;-40
2022/03/03 06:36:09;;;;;;;6.13;4.20;;;;;;;;;;5071475;28;20028;-39
2022/03/03 06:38:35;;;;;;;8.40;3.72;;;;;;;;;;5071887;28;20036;-39
2022/03/03 06:41:02;;;;;;;9.05;4.80;;;;;;;;;;5071450;28;20020;-39
2022/03/03 06:43:29;;;;;;;8.50;4.00;;;;;;;;;;5071378;28;20032;-39
2022/03/03 06:45:56;;;;;;;7.88;4.65;;;;;;;;;;5071683;28;20045;-39
2022/03/03 06:48:21;;;;;;;6.15;3.28;;;;;;;;;;5071385;28;20463;-39
2022/03/03 06:50:49;;;;;;;8.70;4.38;;;;;;;;;;5071392;28;20104;-39
2022/03/03 06:53:16;;;;;;;4.78;2.80;;;;;;;;;;5071437;28;20465;-39
2022/03/03 06:55:42;;;;;;;8.07;3.85;;;;;;;;;;5071540;28;20024;-39
2022/03/03 06:58:08;;;;;;;11.60;4.40;;;;;;;;;;5071468;28;20433;-39
2022/03/03 07:00:34;;;;;;;9.65;4.57;;;;;;;;;;5069826;28;20618;-39
2022/03/03 07:03:00;;;;;;;5.82;3.55;;;;;;;;;;5071354;28;20042;-39
2022/03/03 07:05:28;;;;;;;9.05;4.25;;;;;;;;;;5071368;28;20070;-39
2022/03/03 07:07:54;;;;;;;10.38;4.25;;;;;;;;;;5070578;28;20025;-39
2022/03/03 07:10:23;;;;;;;11.30;3.38;;;;;;;;;;5071116;28;20035;-38
2022/03/03 07:12:51;;;;;;;6.07;3.78;;;;;;;;;;5071015;28;20480;-38
2022/03/03 07:15:16;;;;;;;10.52;4.35;;;;;;;;;;5071222;28;20463;-41
2022/03/03 07:17:49;;;;;;;6.93;3.75;;;;;;;;;;5071424;28;20036;-38
2022/03/03 07:20:14;;;;;;;;;;;;;;;;;;5071585;28;20433;-39
2022/03/03 07:22:59;;;;;;;5.70;4.30;;;;;;;;;;5069894;28;19999;-39
2022/03/03 07:25:29;;;;;;;10.57;3.58;;;;;;;;;;5070935;28;20032;-39
2022/03/03 07:27:54;;;;;;;7.38;4.25;;;;;;;;;;5070885;28;20032;-39
2022/03/03 07:30:20;;;;;;;6.00;4.18;;;;;;;;;;5071086;28;20032;-39
2022/03/03 07:32:51;;;;;;;7.20;4.00;;;;;;;;;;5070890;28;20455;-39
2022/03/03 07:35:17;;;;;;;6.05;4.55;;;;;;;;;;5070926;28;20056;-39
2022/03/03 07:37:47;;;;;;;8.25;4.13;;;;;;;;;;5070900;28;20045;-39
2022/03/03 07:40:13;;;;;;;9.75;3.78;;;;;;;;;;5070961;28;20041;-39
2022/03/03 07:42:39;;;;;;;7.47;3.20;;;;;;;;;;5071307;28;20035;-39
2022/03/03 07:45:07;;;;;;;8.88;4.53;;;;;;;;;;5070889;28;20050;-39
2022/03/03 07:47:33;;;;;;;6.80;3.78;;;;;;;;;;5069517;28;20056;-39
2022/03/03 07:49:58;;;;;;;7.72;4.00;;;;;;;;;;5070725;28;20617;-39
2022/03/03 07:52:24;;;;;;;8.60;4.30;;;;;;;;;;5070670;28;20028;-39
2022/03/03 07:54:50;;;;;;;8.10;3.33;;;;;;;;;;5070609;28;20479;-39
2022/03/03 07:57:16;;;;;;;7.07;3.10;;;;;;;;;;5070815;28;20028;-39
2022/03/03 07:59:45;;;;;;;5.75;3.75;;;;;;;;;;5070646;28;20036;-39
2022/03/03 08:02:15;;;;;;;7.88;4.10;;;;;;;;;;5070594;28;20597;-39
2022/03/03 08:04:40;;;;;;;6.35;3.85;;;;;;;;;;5070911;28;20434;-39
2022/03/03 08:07:07;;;;;;;7.13;4.00;;;;;;;;;;5070518;28;20024;-39
2022/03/03 08:09:33;;;;;;;9.00;4.40;;;;;;;;;;5070605;28;20028;-39
2022/03/03 08:12:02;;;;;;;12.50;4.50;;;;;;;;;;5070521;28;20031;-39
2022/03/03 08:14:29;;;;;;;6.28;3.88;;;;;;;;;;5070785;28;20472;-39
2022/03/03 08:16:54;;;;;;;4.28;3.25;;;;;;;;;;5070463;28;20020;-39
2022/03/03 08:19:20;;;;;;;5.47;4.30;;;;;;;;;;5069250;28;20498;-39
2022/03/03 08:21:46;;;;;;;9.23;4.10;;;;;;;;;;5071958;28;20024;-39
2022/03/03 08:24:11;;;;;;;10.38;5.05;;;;;;;;;;5073985;28;20026;-39
2022/03/03 08:26:38;;;;;;;9.73;3.95;;;;;;;;;;5073947;28;20024;-42
2022/03/03 08:29:03;;;;;;;12.43;4.07;;;;;;;;;;5074017;28;20062;-39
2022/03/03 08:31:34;;;;;;;7.32;4.22;;;;;;;;;;5074040;28;20028;-39
2022/03/03 08:34:03;;;;;;;9.40;4.93;;;;;;;;;;5073710;28;20051;-39
2022/03/03 08:36:37;;;;;;;5.28;3.53;;;;;;;;;;5073838;28;20074;-39
2022/03/03 08:39:04;;;;;;;7.63;3.85;;;;;;;;;;5073765;28;20035;-39
2022/03/03 08:41:31;;;;;;;9.48;4.75;;;;;;;;;;5072541;28;20523;-39
2022/03/03 08:43:57;;;;;;;9.13;4.70;;;;;;;;;;5073621;28;20032;-39
2022/03/03 08:46:24;;;;;;;6.60;3.58;;;;;;;;;;5073599;28;20371;-43
2022/03/03 08:48:49;;;;;;;6.35;4.47;;;;;;;;;;5073546;28;20081;-39
2022/03/03 08:51:18;;;;;;;7.07;3.72;;;;;;;;;;5073477;28;20024;-39
2022/03/03 08:53:44;;;;;;;6.28;3.47;;;;;;;;;;5073478;28;20049;-38
2022/03/03 08:56:10;;;;;;;7.20;4.00;;;;;;;;;;5073490;28;20085;-39
2022/03/03 08:58:36;;;;;;;8.18;4.00;;;;;;;;;;5073324;28;20040;-39
2022/03/03 09:01:01;;;;;;;5.10;3.33;;;;;;;;;;5073601;28;20023;-39
2022/03/03 09:03:27;;;;;;;8.45;4.43;;;;;;;;;;5073367;28;20438;-39
2022/03/03 09:05:54;;;;;;;6.88;2.97;;;;;;;;;;5073161;28;20036;-39
2022/03/03 09:08:20;;;;;;;8.95;4.00;;;;;;;;;;5073255;28;20033;-39
2022/03/03 09:10:45;;;;;;;4.72;2.92;;;;;;;;;;5073088;28;20012;-39
2022/03/03 09:13:11;;;;;;;6.90;3.60;;;;;;;;;;5072980;28;20457;-39
2022/03/03 09:15:37;;;;;;;5.88;3.30;;;;;;;;;;5073102;28;20025;-39
2022/03/03 09:18:02;;;;;;;4.90;3.15;;;;;;;;;;5073217;28;20571;-39
2022/03/03 09:20:28;;;;;;;10.80;3.67;;;;;;;;;;5073250;28;20026;-39
2022/03/03 09:22:53;;;;;;;9.88;4.45;;;;;;;;;;5072823;28;20116;-39
2022/03/03 09:25:19;;;;;;;7.85;3.50;;;;;;;;;;5072928;28;20016;-39
2022/03/03 09:27:45;;;;;;;7.10;3.60;;;;;;;;;;5072939;28;20097;-39
2022/03/03 09:30:12;;;;;;;8.65;3.90;;;;;;;;;;5072944;28;20103;-39
2022/03/03 09:32:38;;;;;;;5.03;3.53;;;;;;;;;;5072149;28;20045;-39
2022/03/03 09:35:04;;;;;;;6.00;3.55;;;;;;;;;;5072819;28;20056;-39
2022/03/03 09:37:30;;;;;;;7.32;3.85;;;;;;;;;;5072923;28;20135;-39
2022/03/03 09:39:55;;;;;;;5.65;3.13;;;;;;;;;;5072390;28;20547;-38
2022/03/03 09:42:20;;;;;;;9.20;3.85;;;;;;;;;;5072561;28;20028;-39
2022/03/03 09:44:46;;;;;;;10.77;4.45;;;;;;;;;;5072451;28;20031;-39
2022/03/03 09:47:12;;;;;;;7.32;3.55;;;;;;;;;;5072334;28;20032;-39
2022/03/03 09:49:38;;;;;;;8.20;3.38;;;;;;;;;;5072569;28;20078;-39
2022/03/03 09:52:14;;;;;;;6.05;3.33;;;;;;;;;;5072287;28;20035;-39
2022/03/03 09:54:40;;;;;;;6.57;3.60;;;;;;;;;;5070958;28;20036;-39
2022/03/03 09:57:06;;;;;;;4.80;2.92;;;;;;;;;;5072336;28;20031;-39
2022/03/03 09:59:31;;;;;;;7.35;3.85;;;;;;;;;;5072397;28;20020;-39
2022/03/03 10:02:06;;;;;;;8.80;3.58;;;;;;;;;;5072300;28;20471;-39
2022/03/03 10:04:33;;;;;;;5.40;3.28;;;;;;;;;;5072343;28;20417;-39
2022/03/03 10:07:05;;;;;;;5.53;3.17;;;;;;;;;;5072059;28;20023;-39
2022/03/03 10:09:31;;;;;;;5.38;2.90;;;;;;;;;;5071980;28;20032;-39
2022/03/03 10:12:00;;;;;;;8.02;2.95;;;;;;;;;;5071833;28;20024;-39
2022/03/03 10:14:27;;;;;;;7.20;3.20;;;;;;;;;;5072166;28;20040;-39
2022/03/03 10:16:52;;;;;;;6.85;2.90;;;;;;;;;;5071943;28;20032;-39
2022/03/03 10:19:18;;;;;;;6.35;3.42;;;;;;;;;;5072072;28;20032;-39
2022/03/03 10:21:44;;;;;;;5.22;2.95;;;;;;;;;;5071856;28;20024;-39
2022/03/03 10:24:21;;;;;;;8.65;3.30;;;;;;;;;;5071632;28;20042;-39
2022/03/03 10:26:54;;;;;;;8.10;3.80;;;;;;;;;;5071779;28;20038;-39
2022/03/03 10:29:21;;;;;;;5.05;3.10;;;;;;;;;;5071583;28;20139;-39
2022/03/03 10:31:47;;;;;;;7.75;3.30;;;;;;;;;;5071539;28;20064;-39
2022/03/03 10:34:17;;;;;;;6.40;3.35;;;;;;;;;;5071542;28;20093;-40
2022/03/03 10:36:43;;;;;;;7.30;2.95;;;;;;;;;;5071503;28;20051;-39
2022/03/03 10:39:08;;;;;;;15.15;4.35;;;;;;;;;;5071393;28;20065;-39
2022/03/03 10:41:37;;;;;;;5.95;3.53;;;;;;;;;;5071621;28;20017;-39
2022/03/03 10:44:08;;;;;;;6.00;3.45;;;;;;;;;;5069285;28;20072;-39
2022/03/03 10:46:34;;;;;;;8.40;3.67;;;;;;;;;;5071425;28;20028;-39
2022/03/03 10:49:15;;;;;;;6.22;3.53;;;;;;;;;;5071286;28;20033;-39
2022/03/03 10:51:40;;;;;;;5.72;3.30;;;;;;;;;;5071192;28;20078;-39
2022/03/03 10:54:08;;;;;;;8.75;3.90;;;;;;;;;;5071303;28;20044;-39
2022/03/03 10:56:41;;;;;;;9.25;4.22;;;;;;;;;;5071622;28;20356;-39
2022/03/03 10:59:07;;;;;;;;;;;;;;;;;;5071825;28;20040;-39
2022/03/03 11:01:33;;;;;;;9.90;3.85;;;;;;;;;;5071597;28;19911;-39
2022/03/03 11:04:00;;;;;;;10.77;4.00;;;;;;;;;;5070244;28;20020;-39
2022/03/03 11:06:30;;;;;;;17.20;3.80;;;;;;;;;;5071233;28;20104;-39
2022/03/03 11:09:00;;;;;;;8.30;3.65;;;;;;;;;;5071306;28;20033;-38
2022/03/03 11:11:25;;;;;;;6.75;3.63;;;;;;;;;;5071525;28;20017;-39
2022/03/03 11:13:51;;;;;;;5.30;3.20;;;;;;;;;;5070950;28;20490;-39
2022/03/03 11:16:18;;;;;;;8.93;3.13;;;;;;;;;;5071172;28;20028;-39
2022/03/03 11:18:44;;;;;;;4.95;3.08;;;;;;;;;;5071095;28;20021;-39
2022/03/03 11:21:10;;;;;;;6.60;2.80;;;;;;;;;;5071291;28;20009;-39
2022/03/03 11:23:40;;;;;;;8.60;3.25;;;;;;;;;;5071125;28;20127;-39
2022/03/03 11:26:06;;;;;;;5.70;2.90;;;;;;;;;;5070972;28;20168;-39
2022/03/03 11:28:36;;;;;;;3.83;2.83;;;;;;;;;;5070983;28;20036;-39
2022/03/03 11:31:26;;;;;;;6.20;3.20;;;;;;;;;;5070850;28;20074;-39
2022/03/03 11:34:11;;;;;;;6.05;4.18;;;;;;;;;;5070803;28;20052;-39
2022/03/03 11:36:44;;;;;;;8.32;3.00;;;;;;;;;;5070953;28;20036;-39
2022/03/03 11:39:10;;;;;;;6.10;3.17;;;;;;;;;;5070694;28;20090;-39
2022/03/03 11:41:46;;;;;;;5.63;2.33;;;;;;;;;;5070912;28;20040;-39
2022/03/03 11:44:14;;;;;;;11.20;3.20;;;;;;;;;;5070700;28;20032;-39
2022/03/03 11:46:47;;;;;;;6.50;2.95;;;;;;;;;;5070846;28;20029;-39
2022/03/03 11:49:16;;;;;;;5.30;3.50;;;;;;;;;;5070696;28;20036;-39
2022/03/03 11:51:42;;;;;;;4.57;2.83;;;;;;;;;;5070794;28;20017;-39
2022/03/03 11:54:11;;;;;;;5.15;2.45;;;;;;;;;;5071028;28;20032;-39
2022/03/03 11:56:56;;;;;;;4.55;2.45;;;;;;;;;;5074731;28;20033;-39
2022/03/03 11:59:32;;;;;;;7.43;2.60;;;;;;;;;;5074520;28;20029;-39
2022/03/03 12:01:57;;;;;;;5.55;2.33;;;;;;;;;;5074635;28;20414;-39
2022/03/03 12:04:26;;;;;;;4.47;3.08;;;;;;;;;;5074480;28;20031;-39
2022/03/03 12:06:53;;;;;;;5.40;3.60;;;;;;;;;;5074242;28;20024;-39
2022/03/03 12:09:20;;;;;;;4.78;3.17;;;;;;;;;;5074277;28;20059;-39
2022/03/03 12:11:47;;;;;;;3.25;2.60;;;;;;;;;;5074163;28;20499;-39
2022/03/03 12:14:29;;;;;;;7.03;2.92;;;;;;;;;;5074088;28;20052;-39
2022/03/03 12:17:15;;;;;;;2.90;1.70;;;;;;;;;;5074394;28;20352;-39
2022/03/03 12:19:41;;;;;;;3.55;2.42;;;;;;;;;;5074074;28;20032;-39
2022/03/03 12:22:27;;;;;;;3.70;2.30;;;;;;;;;;5072707;28;20116;-40
2022/03/03 12:24:52;;;;;;;7.80;2.95;;;;;;;;;;5073964;28;20029;-39
2022/03/03 12:27:19;;;;;;;5.43;3.38;;;;;;;;;;5073916;28;20020;-39
2022/03/03 12:29:49;;;;;;;5.50;2.65;;;;;;;;;;5073985;28;20452;-39
2022/03/03 12:32:29;;;;;;;6.03;3.22;;;;;;;;;;5073565;28;20934;-39
2022/03/03 12:35:03;;;;;;;3.88;2.38;;;;;;;;;;5073827;28;20040;-39
2022/03/03 12:37:32;;;;;;;6.95;2.58;;;;;;;;;;5074127;28;20467;-39
2022/03/03 12:42:30;;;;;;;6.38;2.75;;;;;;;;;;4980897;28;20496;-36
2022/03/03 12:44:58;;;;;;;7.35;4.10;;;;;;;;;;4994796;28;20026;-36
2022/03/03 12:47:33;;;;;;;5.40;2.85;;;;;;;;;;4994415;28;20035;-35
2022/03/03 12:50:13;;;;;;;3.70;2.22;;;;;;;;;;4994540;28;20109;-36
2022/03/03 12:52:40;;;;;;;5.72;2.75;;;;;;;;;;4994275;28;20038;-35
2022/03/03 12:55:06;;;;;;;3.25;2.70;;;;;;;;;;4994730;28;20400;-36
2022/03/03 12:57:34;;;;;;;4.68;2.90;;;;;;;;;;4994275;28;20042;-36
2022/03/03 13:00:00;;;;;;;6.03;2.88;;;;;;;;;;4994630;28;20030;-36
2022/03/03 13:02:26;;;;;;;4.43;3.13;;;;;;;;;;4994057;28;20042;-36
2022/03/03 13:04:52;;;;;;;5.60;3.75;;;;;;;;;;4994269;28;20137;-36
2022/03/03 13:07:18;;;;;;;5.97;2.95;;;;;;;;;;4993681;28;20105;-36
2022/03/03 13:09:50;;;;;;;6.63;3.28;;;;;;;;;;4994000;28;20029;-36
2022/03/03 13:12:15;;;;;;;5.47;3.40;;;;;;;;;;4994385;28;20037;-36
2022/03/03 13:14:40;;;;;;;5.55;2.72;;;;;;;;;;4993886;28;20042;-36
2022/03/03 13:17:08;;;;;;;4.50;2.85;;;;;;;;;;4994223;28;20124;-36
2022/03/03 13:19:45;;;;;;;6.18;3.17;;;;;;;;;;4993857;28;20033;-36
2022/03/03 13:22:11;;;;;;;5.70;2.92;;;;;;;;;;4993817;28;20348;-36
2022/03/03 13:24:36;;;;;;;5.05;3.20;;;;;;;;;;4993727;28;20105;-36
2022/03/03 13:27:02;;;;;;;7.55;3.70;;;;;;;;;;4993812;28;20468;-36
2022/03/03 13:29:28;;;;;;;6.60;3.33;;;;;;;;;;4994064;28;20113;-36
2022/03/03 13:31:54;;;;;;;9.20;4.00;;;;;;;;;;4993734;28;20052;-36
2022/03/03 13:34:23;;;;;;;8.30;4.22;;;;;;;;;;4993680;28;20065;-35
2022/03/03 13:36:49;;;;;;;5.38;2.42;;;;;;;;;;4993511;28;20034;-36
2022/03/03 13:39:25;;;;;;;8.07;5.68;;;;;;;;;;4993549;28;20029;-36
2022/03/03 13:42:00;;;;;;;7.45;3.55;;;;;;;;;;4993221;28;20046;-36
2022/03/03 13:44:26;;;;;;;8.05;4.40;;;;;;;;;;4993451;28;20507;-36
2022/03/03 13:46:59;;;;;;;9.82;4.93;;;;;;;;;;4993406;28;20105;-36
2022/03/03 13:49:24;;;;;;;;;;;;;;;;;;5008928;28;20666;-36
2022/03/03 13:52:33;;;;;;;11.48;4.53;;;;;;;;;;4993479;28;19985;-35
2022/03/03 13:54:58;;;;;;;10.43;3.95;;;;;;;;;;4952084;29;20078;-36
2022/03/03 13:57:36;;;;;;;7.03;4.97;;;;;;;;;;4952165;29;20513;-35
2022/03/03 14:00:21;;;;;;;8.73;4.15;;;;;;;;;;4975955;28;20400;-36
2022/03/03 14:02:51;;;;;;;13.57;5.95;;;;;;;;;;4993053;28;20104;-35
2022/03/03 14:05:18;;;;;;;8.80;5.00;;;;;;;;;;4993156;28;20603;-35
2022/03/03 14:07:54;;;;;;;11.98;5.10;;;;;;;;;;4993188;28;20393;-35
2022/03/03 14:10:20;;;;;;;7.93;4.40;;;;;;;;;;4993333;28;20432;-35
2022/03/03 14:13:02;;;;;;;6.15;2.25;;;;;;;;;;4992769;28;20084;-36
2022/03/03 14:15:28;;;;;;;9.13;5.40;;;;;;;;;;4992861;28;20500;-36
2022/03/03 14:17:54;;;;;;;19.05;6.32;;;;;;;;;;4992742;28;20031;-35
2022/03/03 14:20:19;;;;;;;10.70;5.53;;;;;;;;;;4992822;28;20034;-36
2022/03/03 14:22:55;;;;;;;12.43;5.50;;;;;;;;;;4992698;28;20105;-35
2022/03/03 14:25:22;;;;;;;16.38;6.30;;;;;;;;;;4992868;28;20045;-35
2022/03/03 14:27:48;;;;;;;10.43;5.38;;;;;;;;;;4992760;28;20026;-35
2022/03/03 14:30:16;;;;;;;13.50;6.00;;;;;;;;;;4992673;28;20031;-35
2022/03/03 14:32:42;;;;;;;15.65;5.90;;;;;;;;;;4992470;28;20034;-36
2022/03/03 14:35:12;;;;;;;14.48;6.32;;;;;;;;;;4992549;28;20126;-36
2022/03/03 14:37:41;;;;;;;15.57;6.28;;;;;;;;;;4992505;28;20037;-35
2022/03/03 14:40:08;;;;;;;11.35;6.32;;;;;;;;;;4992505;28;20027;-35
2022/03/03 14:42:37;;;;;;;15.63;4.97;;;;;;;;;;4992138;28;20077;-35
2022/03/03 14:45:03;;;;;;;13.77;6.57;;;;;;;;;;4992448;28;20432;-36